createdAt,value
2022-10-28T00:01:41.974Z,14.02
2022-10-28T00:04:12.479Z,13.99
2022-10-28T00:06:42.868Z,14.00
2022-10-28T00:09:13.435Z,14.00
2022-10-28T00:11:43.804Z,14.01
2022-10-28T00:14:15.079Z,14.00
2022-10-28T00:16:45.470Z,14.10
2022-10-28T00:19:16.189Z,14.04
2022-10-28T00:21:47.183Z,14.05
2022-10-28T00:24:17.579Z,14.08
2022-10-28T00:26:48.019Z,14.05
2022-10-28T00:29:20.256Z,14.02
2022-10-28T00:31:52.583Z,14.00
2022-10-28T00:34:23.006Z,14.02
2022-10-28T00:36:53.467Z,13.99
2022-10-28T00:39:27.496Z,14.01
2022-10-28T00:42:03.697Z,13.98
2022-10-28T00:44:53.673Z,14.02
2022-10-28T00:47:32.870Z,13.99
2022-10-28T00:50:06.239Z,14.00
2022-10-28T00:52:37.446Z,13.97
2022-10-28T00:55:08.979Z,13.95
2022-10-28T00:57:41.885Z,13.96
2022-10-28T01:00:13.584Z,13.94
2022-10-28T01:02:47.142Z,13.93
2022-10-28T01:05:23.562Z,13.96
2022-10-28T01:07:56.772Z,13.96
2022-10-28T01:10:33.454Z,14.02
2022-10-28T01:13:06.941Z,14.03
2022-10-28T01:15:46.377Z,13.99
2022-10-28T01:18:28.574Z,13.94
2022-10-28T01:21:31.797Z,13.96
2022-10-28T01:24:26.607Z,13.94
2022-10-28T01:27:03.042Z,13.82
2022-10-28T01:29:56.390Z,13.80
2022-10-28T01:32:51.505Z,13.77
2022-10-28T01:35:39.548Z,13.76
2022-10-28T01:38:18.838Z,13.72
2022-10-28T01:40:55.157Z,13.72
2022-10-28T01:43:37.061Z,13.63
2022-10-28T01:46:10.451Z,13.60
2022-10-28T01:48:46.592Z,13.60
2022-10-28T01:51:25.738Z,13.62
2022-10-28T01:53:59.043Z,13.60
2022-10-28T01:56:40.943Z,13.59
2022-10-28T01:59:14.531Z,13.61
2022-10-28T02:01:45.144Z,13.58
2022-10-28T02:04:15.991Z,13.55
2022-10-28T02:06:49.644Z,13.50
2022-10-28T02:09:32.399Z,13.52
2022-10-28T02:12:24.054Z,13.52
2022-10-28T02:15:12.883Z,13.46
2022-10-28T02:17:56.277Z,13.44
2022-10-28T02:20:30.299Z,13.38
2022-10-28T02:23:15.483Z,13.38
2022-10-28T02:26:19.494Z,13.38
2022-10-28T02:29:08.063Z,13.36
2022-10-28T02:31:41.499Z,13.35
2022-10-28T02:34:14.977Z,13.32
2022-10-28T02:36:48.273Z,13.32
2022-10-28T02:39:21.745Z,13.34
2022-10-28T02:42:06.618Z,13.30
2022-10-28T02:44:40.109Z,13.30
2022-10-28T02:47:13.478Z,13.28
2022-10-28T02:49:46.991Z,13.28
2022-10-28T02:52:20.379Z,13.26
2022-10-28T02:54:59.957Z,13.24
2022-10-28T02:57:36.016Z,13.26
2022-10-28T03:00:12.418Z,13.28
2022-10-28T03:02:43.049Z,13.26
2022-10-28T03:05:14.271Z,13.24
2022-10-28T03:07:45.121Z,13.24
2022-10-28T03:10:15.559Z,13.24
2022-10-28T03:12:45.962Z,13.22
2022-10-28T03:15:16.611Z,13.24
2022-10-28T03:17:47.077Z,13.27
2022-10-28T03:20:17.527Z,13.21
2022-10-28T03:22:48.109Z,13.18
2022-10-28T03:25:18.517Z,13.20
2022-10-28T03:27:49.102Z,13.21
2022-10-28T03:30:19.489Z,13.15
2022-10-28T03:32:49.853Z,13.15
2022-10-28T03:35:20.266Z,13.08
2022-10-28T03:37:50.608Z,13.06
2022-10-28T03:40:20.979Z,13.04
2022-10-28T03:42:51.732Z,13.04
2022-10-28T03:45:22.405Z,13.06
2022-10-28T03:47:53.498Z,13.02
2022-10-28T03:50:25.210Z,13.04
2022-10-28T03:52:55.604Z,13.06
2022-10-28T03:55:27.468Z,13.04
2022-10-28T03:57:59.455Z,13.00
2022-10-28T04:00:30.287Z,13.00
2022-10-28T04:03:00.683Z,12.96
2022-10-28T04:05:31.263Z,12.94
2022-10-28T04:08:01.647Z,12.93
2022-10-28T04:10:32.043Z,12.87
2022-10-28T04:13:05.139Z,12.86
2022-10-28T04:15:35.468Z,12.88
2022-10-28T04:18:06.216Z,12.88
2022-10-28T04:20:36.656Z,12.88
2022-10-28T04:23:07.305Z,12.82
2022-10-28T04:25:37.718Z,12.82
2022-10-28T04:28:08.040Z,12.81
2022-10-28T04:30:38.592Z,12.79
2022-10-28T04:33:10.592Z,12.80
2022-10-28T04:35:42.638Z,12.76
2022-10-28T04:38:15.563Z,12.73
2022-10-28T04:40:49.045Z,12.76
2022-10-28T04:43:19.454Z,12.67
2022-10-28T04:45:49.841Z,12.70
2022-10-28T04:48:20.255Z,12.67
2022-10-28T04:50:50.928Z,12.66
2022-10-28T04:53:21.257Z,12.67
2022-10-28T04:55:51.911Z,12.63
2022-10-28T04:58:22.434Z,12.62
2022-10-28T05:00:52.879Z,12.57
2022-10-28T05:03:23.349Z,12.57
2022-10-28T05:05:53.746Z,12.54
2022-10-28T05:08:24.201Z,12.64
2022-10-28T05:10:54.957Z,12.55
2022-10-28T05:13:25.439Z,12.55
2022-10-28T05:15:55.930Z,12.49
2022-10-28T05:18:26.491Z,12.54
2022-10-28T05:20:56.921Z,12.57
2022-10-28T05:23:30.808Z,12.58
2022-10-28T05:25:59.817Z,12.56
2022-10-28T05:28:30.190Z,12.56
2022-10-28T05:31:00.620Z,12.53
2022-10-28T05:33:31.101Z,12.56
2022-10-28T05:36:02.083Z,12.57
2022-10-28T05:38:32.448Z,12.56
2022-10-28T05:41:03.586Z,12.55
2022-10-28T05:43:33.972Z,12.62
2022-10-28T05:46:04.998Z,12.61
2022-10-28T05:48:35.374Z,12.62
2022-10-28T05:51:05.826Z,12.66
2022-10-28T05:53:36.219Z,12.68
2022-10-28T05:56:06.756Z,12.72
2022-10-28T05:58:37.140Z,12.72
2022-10-28T06:01:08.721Z,12.76
2022-10-28T06:03:39.155Z,12.80
2022-10-28T06:06:09.519Z,12.86
2022-10-28T06:08:39.919Z,12.88
2022-10-28T06:11:09.451Z,12.91
2022-10-28T06:13:39.898Z,12.94
2022-10-28T06:16:10.235Z,13.02
2022-10-28T06:18:40.622Z,13.02
2022-10-28T06:21:11.047Z,13.08
2022-10-28T06:23:41.363Z,13.05
2022-10-28T06:26:11.760Z,13.06
2022-10-28T06:28:42.072Z,13.07
2022-10-28T06:31:12.607Z,13.09
2022-10-28T06:33:43.030Z,13.06
2022-10-28T06:36:13.422Z,13.11
2022-10-28T06:38:43.754Z,13.04
2022-10-28T06:41:14.253Z,13.13
2022-10-28T06:43:44.711Z,13.15
2022-10-28T06:46:15.249Z,13.20
2022-10-28T06:48:47.254Z,13.20
2022-10-28T06:51:17.932Z,13.19
2022-10-28T06:53:54.156Z,13.24
2022-10-28T06:56:24.781Z,13.26
2022-10-28T06:58:55.783Z,13.28
2022-10-28T07:01:26.344Z,13.36
2022-10-28T07:03:56.931Z,13.40
2022-10-28T07:06:27.493Z,13.40
2022-10-28T07:08:57.869Z,13.50
2022-10-28T07:11:28.520Z,13.49
2022-10-28T07:13:59.119Z,13.60
2022-10-28T07:16:29.485Z,13.79
2022-10-28T07:18:59.910Z,13.77
2022-10-28T07:21:30.379Z,13.98
2022-10-28T07:24:01.107Z,14.04
2022-10-28T07:26:31.505Z,14.06
2022-10-28T07:29:01.985Z,14.14
2022-10-28T07:31:32.351Z,14.24
2022-10-28T07:34:03.181Z,14.33
2022-10-28T07:36:33.656Z,14.44
2022-10-28T07:39:04.179Z,14.57
2022-10-28T07:41:34.577Z,14.64
2022-10-28T07:44:05.148Z,14.68
2022-10-28T07:46:36.126Z,14.78
2022-10-28T07:49:06.674Z,14.83
2022-10-28T07:51:37.113Z,14.97
2022-10-28T07:54:07.634Z,15.16
2022-10-28T07:56:40.646Z,15.27
2022-10-28T07:59:11.039Z,15.21
2022-10-28T08:01:41.516Z,15.33
2022-10-28T08:04:12.198Z,15.42
2022-10-28T08:06:42.925Z,15.48
2022-10-28T08:09:13.871Z,15.54
2022-10-28T08:11:44.173Z,15.68
2022-10-28T08:14:14.865Z,15.72
2022-10-28T08:16:46.857Z,15.86
2022-10-28T08:19:17.334Z,15.89
2022-10-28T08:21:49.317Z,16.16
2022-10-28T08:24:19.699Z,16.42
2022-10-28T08:26:50.160Z,16.61
2022-10-28T08:29:20.768Z,16.83
2022-10-28T08:31:51.288Z,16.88
2022-10-28T08:36:52.138Z,15.99
2022-10-28T08:39:22.894Z,15.49
2022-10-28T08:42:05.020Z,15.28
2022-10-28T08:44:53.261Z,15.08
2022-10-28T08:47:41.902Z,15.06
2022-10-28T08:50:15.443Z,15.14
2022-10-28T08:53:03.753Z,15.24
2022-10-28T08:55:43.257Z,15.42
2022-10-28T08:58:19.577Z,15.42
2022-10-28T09:00:54.041Z,15.74
2022-10-28T09:03:27.370Z,16.20
2022-10-28T09:06:08.881Z,17.23
2022-10-28T09:08:42.398Z,17.40
2022-10-28T09:11:26.277Z,18.34
2022-10-28T09:13:59.738Z,19.49
2022-10-28T09:16:48.066Z,21.18
2022-10-28T09:19:27.708Z,22.63
2022-10-28T09:22:29.860Z,24.14
2022-10-28T09:25:22.816Z,25.25
2022-10-28T09:27:59.345Z,25.90
2022-10-28T09:31:02.827Z,24.52
2022-10-28T09:33:42.014Z,22.66
2022-10-28T09:36:18.320Z,22.66
2022-10-28T09:38:50.847Z,23.50
2022-10-28T09:41:27.185Z,24.39
2022-10-28T09:44:06.223Z,23.86
2022-10-28T09:46:37.448Z,21.96
2022-10-28T09:49:11.221Z,20.75
2022-10-28T09:51:56.896Z,20.96
2022-10-28T09:54:33.403Z,22.80
2022-10-28T09:57:04.956Z,23.25
2022-10-28T09:59:36.268Z,22.55
2022-10-28T10:02:06.986Z,21.52
2022-10-28T10:04:38.252Z,21.32
2022-10-28T10:07:15.057Z,21.04
2022-10-28T10:09:46.233Z,20.74
2022-10-28T10:12:17.153Z,20.90
2022-10-28T10:14:50.793Z,23.92
2022-10-28T10:17:33.368Z,24.23
2022-10-28T10:20:12.353Z,23.23
2022-10-28T10:22:44.980Z,23.14
2022-10-28T10:25:25.272Z,21.50
2022-10-28T10:28:07.411Z,21.15
2022-10-28T10:30:43.871Z,20.84
2022-10-28T10:33:29.156Z,21.55
2022-10-28T10:36:05.707Z,24.02
2022-10-28T10:38:36.969Z,23.52
2022-10-28T10:41:07.483Z,22.20
2022-10-28T10:43:39.768Z,21.69
2022-10-28T10:46:18.607Z,21.36
2022-10-28T10:48:52.124Z,21.70
2022-10-28T10:51:30.068Z,22.74
2022-10-28T10:54:00.965Z,24.19
2022-10-28T10:56:34.016Z,24.19
2022-10-28T10:59:06.784Z,23.28
2022-10-28T11:01:40.747Z,22.98
2022-10-28T11:04:23.400Z,23.50
2022-10-28T11:06:57.062Z,23.10
2022-10-28T11:09:30.632Z,22.60
2022-10-28T11:12:01.502Z,22.71
2022-10-28T11:14:33.122Z,23.04
2022-10-28T11:17:04.773Z,22.82
2022-10-28T11:19:37.350Z,22.70
2022-10-28T11:22:13.688Z,23.92
2022-10-28T11:24:59.146Z,24.54
2022-10-28T11:27:46.376Z,24.98
2022-10-28T11:30:20.258Z,25.43
2022-10-28T11:33:35.392Z,25.37
2022-10-28T11:36:15.954Z,25.60
2022-10-28T11:38:55.271Z,26.13
2022-10-28T11:41:28.883Z,26.23
2022-10-28T11:44:04.999Z,26.00
2022-10-28T11:46:48.356Z,26.33
2022-10-28T11:49:34.081Z,25.92
2022-10-28T11:52:10.475Z,25.91
2022-10-28T11:55:03.242Z,25.36
2022-10-28T11:57:53.951Z,24.70
2022-10-28T12:00:59.546Z,24.02
2022-10-28T12:03:48.150Z,23.58
2022-10-28T12:06:42.492Z,23.70
2022-10-28T12:09:18.979Z,23.90
2022-10-28T12:11:58.803Z,25.34
2022-10-28T12:14:32.197Z,25.49
2022-10-28T12:17:17.850Z,25.62
2022-10-28T12:19:57.355Z,25.43
2022-10-28T12:22:36.882Z,25.29
2022-10-28T12:25:13.137Z,25.03
2022-10-28T12:27:47.246Z,25.86
2022-10-28T12:30:23.488Z,26.20
2022-10-28T12:32:57.231Z,26.26
2022-10-28T12:35:30.887Z,25.64
2022-10-28T12:38:25.462Z,25.76
2022-10-28T12:41:10.436Z,25.14
2022-10-28T12:43:46.850Z,25.25
2022-10-28T12:46:22.892Z,24.92
2022-10-28T12:48:56.412Z,24.16
2022-10-28T12:51:32.798Z,23.91
2022-10-28T12:54:26.042Z,23.43
2022-10-28T12:56:59.519Z,23.53
2022-10-28T12:59:35.753Z,23.58
2022-10-28T13:02:09.292Z,23.60
2022-10-28T13:04:39.822Z,23.61
2022-10-28T13:07:28.099Z,23.58
2022-10-28T13:10:04.263Z,23.55
2022-10-28T13:12:50.018Z,23.49
2022-10-28T13:15:39.902Z,23.36
2022-10-28T13:18:28.663Z,23.41
2022-10-28T13:21:35.505Z,23.72
2022-10-28T13:24:17.656Z,23.50
2022-10-28T13:26:49.108Z,23.40
2022-10-28T13:29:28.818Z,23.61
2022-10-28T13:31:59.577Z,24.51
2022-10-28T13:34:36.089Z,25.15
2022-10-28T13:37:09.154Z,24.90
2022-10-28T13:39:47.279Z,24.64
2022-10-28T13:42:22.395Z,24.21
2022-10-28T13:44:58.711Z,24.18
2022-10-28T13:47:34.724Z,23.90
2022-10-28T13:50:12.523Z,23.42
2022-10-28T13:52:44.360Z,23.38
2022-10-28T13:55:26.642Z,23.29
2022-10-28T13:58:03.146Z,23.08
2022-10-28T14:00:35.921Z,22.95
2022-10-28T14:03:09.526Z,22.57
2022-10-28T14:05:43.169Z,22.54
2022-10-28T14:08:22.364Z,22.38
2022-10-28T14:11:11.254Z,22.35
2022-10-28T14:13:50.781Z,22.28
2022-10-28T14:16:32.358Z,22.09
2022-10-28T14:19:11.386Z,22.02
2022-10-28T14:21:50.780Z,21.97
2022-10-28T14:24:39.231Z,21.93
2022-10-28T14:27:12.825Z,21.90
2022-10-28T14:29:51.107Z,21.88
2022-10-28T14:32:43.050Z,21.84
2022-10-28T14:35:16.443Z,21.72
2022-10-28T14:38:08.924Z,21.68
2022-10-28T14:40:51.453Z,21.62
2022-10-28T14:43:37.074Z,21.55
2022-10-28T14:46:30.513Z,21.47
2022-10-28T14:49:03.549Z,21.50
2022-10-28T14:51:42.404Z,21.35
2022-10-28T14:54:21.919Z,21.29
2022-10-28T14:56:55.332Z,21.23
2022-10-28T14:59:28.473Z,21.20
2022-10-28T15:02:12.755Z,21.01
2022-10-28T15:04:45.798Z,21.04
2022-10-28T15:07:19.070Z,20.96
2022-10-28T15:09:54.204Z,21.00
2022-10-28T15:12:26.871Z,20.86
2022-10-28T15:14:58.244Z,20.76
2022-10-28T15:17:31.931Z,20.68
2022-10-28T15:20:04.280Z,20.57
2022-10-28T15:22:34.708Z,20.46
2022-10-28T15:25:13.874Z,20.36
2022-10-28T15:27:46.483Z,20.30
2022-10-28T15:30:23.745Z,20.28
2022-10-28T15:32:56.231Z,20.16
2022-10-28T15:35:35.808Z,20.15
2022-10-28T15:38:24.526Z,20.12
2022-10-28T15:40:55.339Z,20.03
2022-10-28T15:43:31.048Z,19.94
2022-10-28T15:46:12.220Z,19.88
2022-10-28T15:48:42.988Z,19.86
2022-10-28T15:51:15.919Z,19.74
2022-10-28T15:53:52.312Z,19.76
2022-10-28T15:56:32.639Z,19.62
2022-10-28T15:59:14.687Z,19.66
2022-10-28T16:01:45.087Z,19.60
2022-10-28T16:04:27.708Z,19.57
2022-10-28T16:07:01.189Z,19.48
2022-10-28T16:09:34.575Z,19.48
2022-10-28T16:12:13.855Z,19.45
2022-10-28T16:14:50.543Z,19.50
2022-10-28T16:17:24.269Z,19.52
2022-10-28T16:20:18.535Z,19.43
2022-10-28T16:22:48.456Z,19.37
2022-10-28T16:25:21.642Z,19.29
2022-10-28T16:27:52.495Z,19.18
2022-10-28T16:32:53.822Z,19.10
2022-10-28T16:35:26.593Z,19.15
2022-10-28T16:37:56.977Z,19.09
2022-10-28T16:43:01.152Z,19.07
2022-10-28T16:45:31.549Z,19.10
2022-10-28T16:48:02.016Z,19.08
2022-10-28T16:50:32.401Z,19.05
2022-10-28T16:53:02.822Z,19.06
2022-10-28T16:55:33.251Z,18.96
2022-10-28T16:58:03.909Z,18.98
2022-10-28T17:00:34.540Z,18.96
2022-10-28T17:03:05.617Z,19.03
2022-10-28T17:05:36.093Z,18.88
2022-10-28T17:08:09.959Z,18.90
2022-10-28T17:10:41.710Z,18.99
2022-10-28T17:13:16.204Z,18.94
2022-10-28T17:15:48.112Z,18.92
2022-10-28T17:18:19.393Z,18.80
2022-10-28T17:21:01.311Z,18.70
2022-10-28T17:23:31.770Z,18.76
2022-10-28T17:26:03.611Z,18.88
2022-10-28T17:28:34.115Z,18.75
2022-10-28T17:31:07.038Z,18.85
2022-10-28T17:33:37.432Z,18.79
2022-10-28T17:36:08.907Z,18.67
2022-10-28T17:38:39.588Z,18.77
2022-10-28T17:41:10.020Z,18.80
2022-10-28T17:43:40.386Z,18.82
2022-10-28T17:46:11.243Z,18.69
2022-10-28T17:48:41.883Z,18.63
2022-10-28T17:51:12.499Z,18.70
2022-10-28T17:53:42.873Z,18.60
2022-10-28T17:56:13.364Z,18.71
2022-10-28T17:58:43.801Z,18.65
2022-10-28T18:01:14.280Z,18.57
2022-10-28T18:03:44.801Z,18.52
2022-10-28T18:06:15.160Z,18.58
2022-10-28T18:08:45.980Z,18.54
2022-10-28T18:11:19.543Z,18.60
2022-10-28T18:13:52.732Z,18.44
2022-10-28T18:16:27.016Z,18.48
2022-10-28T18:18:59.164Z,18.38
2022-10-28T18:21:29.531Z,18.39
2022-10-28T18:24:01.757Z,18.36
2022-10-28T18:26:34.180Z,18.30
2022-10-28T18:29:06.238Z,18.38
2022-10-28T18:31:40.022Z,18.37
2022-10-28T18:34:11.121Z,18.27
2022-10-28T18:36:41.506Z,18.32
2022-10-28T18:39:11.920Z,18.24
2022-10-28T18:41:43.775Z,18.43
2022-10-28T18:44:16.965Z,18.43
2022-10-28T18:46:47.490Z,18.30
2022-10-28T18:49:18.220Z,18.20
2022-10-28T18:51:48.527Z,18.20
2022-10-28T18:54:18.844Z,18.15
2022-10-28T18:56:53.702Z,18.17
2022-10-28T18:59:22.744Z,18.14
2022-10-28T19:01:53.335Z,18.13
2022-10-28T19:04:24.019Z,18.04
2022-10-28T19:06:56.827Z,18.06
2022-10-28T19:09:27.563Z,18.06
2022-10-28T19:11:57.970Z,17.96
2022-10-28T19:14:28.374Z,17.98
2022-10-28T19:16:58.694Z,17.95
2022-10-28T19:19:29.152Z,18.07
2022-10-28T19:21:59.684Z,17.98
2022-10-28T19:24:30.007Z,18.05
2022-10-28T19:27:00.425Z,17.96
2022-10-28T19:29:31.110Z,17.97
2022-10-28T19:32:02.155Z,18.04
2022-10-28T19:34:32.683Z,18.06
2022-10-28T19:37:03.033Z,17.97
2022-10-28T19:39:33.604Z,17.92
2022-10-28T19:42:04.010Z,17.88
2022-10-28T19:44:34.430Z,17.87
2022-10-28T19:47:04.919Z,17.90
2022-10-28T19:49:39.362Z,17.81
2022-10-28T19:52:07.353Z,17.84
2022-10-28T19:54:37.713Z,17.80
2022-10-28T19:57:08.228Z,17.80
2022-10-28T19:59:38.671Z,17.72
2022-10-28T20:02:10.314Z,17.83
2022-10-28T20:04:40.894Z,17.72
2022-10-28T20:07:11.373Z,17.78
2022-10-28T20:09:41.783Z,17.73
2022-10-28T20:12:12.142Z,17.67
2022-10-28T20:14:42.587Z,17.58
2022-10-28T20:17:14.557Z,17.55
2022-10-28T20:19:44.948Z,17.50
2022-10-28T20:22:17.148Z,17.64
2022-10-28T20:24:47.529Z,17.50
2022-10-28T20:27:18.037Z,17.50
2022-10-28T20:29:48.434Z,17.48
2022-10-28T20:32:20.459Z,17.44
2022-10-28T20:34:50.775Z,17.34
2022-10-28T20:37:21.346Z,17.36
2022-10-28T20:39:54.927Z,17.32
2022-10-28T20:42:23.958Z,17.33
2022-10-28T20:44:54.359Z,17.27
2022-10-28T20:47:24.826Z,17.28
2022-10-28T20:49:55.380Z,17.24
2022-10-28T20:52:25.739Z,17.21
2022-10-28T20:54:56.372Z,17.20
2022-10-28T20:57:26.743Z,17.27
2022-10-28T20:59:57.146Z,17.26
2022-10-28T21:02:27.617Z,17.20
2022-10-28T21:04:58.267Z,17.20
2022-10-28T21:07:28.712Z,17.14
2022-10-28T21:10:00.769Z,17.17
2022-10-28T21:12:31.190Z,17.13
2022-10-28T21:15:01.647Z,17.15
2022-10-28T21:17:32.283Z,17.15
2022-10-28T21:20:02.762Z,17.10
2022-10-28T21:22:33.260Z,17.03
2022-10-28T21:25:04.331Z,16.98
2022-10-28T21:27:34.645Z,16.91
2022-10-28T21:30:05.405Z,16.94
2022-10-28T21:32:39.395Z,16.80
2022-10-28T21:35:10.509Z,16.86
2022-10-28T21:37:40.956Z,16.86
2022-10-28T21:40:12.607Z,16.77
2022-10-28T21:42:44.968Z,16.75
2022-10-28T21:45:15.498Z,16.70
2022-10-28T21:47:46.097Z,16.69
2022-10-28T21:50:17.962Z,16.70
2022-10-28T21:52:48.315Z,16.67
2022-10-28T21:55:20.925Z,16.64
2022-10-28T21:57:50.701Z,16.61
2022-10-28T22:00:21.171Z,16.70
2022-10-28T22:02:52.378Z,16.63
2022-10-28T22:05:22.834Z,16.63
2022-10-28T22:07:53.437Z,16.64
2022-10-28T22:10:24.023Z,16.64
2022-10-28T22:12:56.326Z,16.64
2022-10-28T22:15:26.772Z,16.79
2022-10-28T22:17:57.569Z,16.89
2022-10-28T22:20:28.232Z,16.89
2022-10-28T22:22:58.720Z,16.90
2022-10-28T22:25:29.297Z,16.84
2022-10-28T22:27:59.635Z,16.91
2022-10-28T22:30:30.004Z,16.91
2022-10-28T22:33:00.405Z,16.80
2022-10-28T22:35:30.726Z,16.80
2022-10-28T22:38:01.209Z,16.78
2022-10-28T22:40:31.584Z,16.74
2022-10-28T22:43:02.069Z,16.72
2022-10-28T22:45:32.385Z,16.69
2022-10-28T22:48:02.647Z,16.75
2022-10-28T22:50:33.041Z,16.88
2022-10-28T22:53:03.430Z,16.75
2022-10-28T22:55:33.848Z,16.74
2022-10-28T22:58:04.257Z,16.86
2022-10-28T23:00:34.651Z,16.87
2022-10-28T23:03:05.081Z,16.83
2022-10-28T23:05:35.744Z,17.03
2022-10-28T23:08:06.308Z,16.86
2022-10-28T23:10:36.620Z,16.82
2022-10-28T23:13:07.100Z,16.84
2022-10-28T23:15:37.466Z,16.82
2022-10-28T23:18:07.962Z,16.96
2022-10-28T23:20:38.351Z,16.87
2022-10-28T23:23:08.755Z,16.84
2022-10-28T23:25:39.122Z,16.94
2022-10-28T23:28:09.445Z,17.08
2022-10-28T23:30:39.752Z,17.04
2022-10-28T23:33:10.175Z,17.04
2022-10-28T23:35:41.731Z,17.07
2022-10-28T23:38:13.785Z,16.94
2022-10-28T23:40:44.205Z,17.00
2022-10-28T23:43:14.602Z,16.84
2022-10-28T23:45:44.985Z,16.94
2022-10-28T23:48:15.509Z,16.97
2022-10-28T23:50:46.423Z,16.97
2022-10-28T23:53:17.321Z,16.98
2022-10-28T23:55:49.563Z,16.98
2022-10-28T23:58:21.450Z,17.03
